createdAt,value
2017-06-05T00:00:06.450Z,4.10
2017-06-05T00:02:40.593Z,4.80
2017-06-05T00:05:14.839Z,3.93
2017-06-05T00:07:49.026Z,4.53
2017-06-05T00:10:23.232Z,4.20
2017-06-05T00:12:57.541Z,4.10
2017-06-05T00:15:31.698Z,4.67
2017-06-05T00:24:36.003Z,4.53
2017-06-05T00:27:10.100Z,5.37
2017-06-05T00:29:44.313Z,4.70
2017-06-05T00:32:18.427Z,4.70
2017-06-05T00:34:52.623Z,4.50
2017-06-05T00:37:26.689Z,4.50
2017-06-05T00:40:00.933Z,4.70
2017-06-05T00:45:49.980Z,4.47
2017-06-05T00:48:24.299Z,4.77
2017-06-05T00:50:58.477Z,4.70
2017-06-05T00:53:32.654Z,5.80
2017-06-05T00:56:06.853Z,6.00
2017-06-05T00:58:41.030Z,5.30
2017-06-05T01:04:29.669Z,4.97
2017-06-05T01:07:03.702Z,5.00
2017-06-05T01:09:37.846Z,5.03
2017-06-05T01:12:12.114Z,4.53
2017-06-05T01:14:46.259Z,4.20
2017-06-05T01:17:20.597Z,5.63
2017-06-05T01:19:54.660Z,5.30
2017-06-05T01:25:43.482Z,4.70
2017-06-05T01:28:17.524Z,5.67
2017-06-05T01:34:06.574Z,5.33
2017-06-05T01:36:40.738Z,5.17
2017-06-05T01:39:15.019Z,4.80
2017-06-05T01:41:49.192Z,4.90
2017-06-05T01:44:23.464Z,4.40
2017-06-05T01:46:57.610Z,4.60
2017-06-05T01:49:31.675Z,4.30
2017-06-05T01:52:05.832Z,4.60
2017-06-05T01:57:54.396Z,4.53
2017-06-05T02:00:28.630Z,4.40
2017-06-05T02:03:02.776Z,4.70
2017-06-05T02:05:37.077Z,4.90
2017-06-05T02:08:11.247Z,5.70
2017-06-05T02:14:00.013Z,4.90
2017-06-05T02:16:34.097Z,5.30
2017-06-05T02:19:08.166Z,5.03
2017-06-05T02:21:42.409Z,4.97
2017-06-05T02:24:16.579Z,4.90
2017-06-05T02:26:50.679Z,5.07
2017-06-05T02:29:24.762Z,5.10
2017-06-05T02:31:59.033Z,4.40
2017-06-05T02:34:33.249Z,5.00
2017-06-05T02:37:07.470Z,4.53
2017-06-05T02:39:41.500Z,4.60
2017-06-05T02:42:15.657Z,4.63
2017-06-05T02:48:05.140Z,4.50
2017-06-05T02:50:39.618Z,4.70
2017-06-05T02:53:13.782Z,5.50
2017-06-05T02:55:48.048Z,4.83
2017-06-05T02:58:22.251Z,4.70
2017-06-05T03:04:11.323Z,5.70
2017-06-05T03:06:45.516Z,5.63
2017-06-05T03:09:19.520Z,5.03
2017-06-05T03:11:53.811Z,5.37
2017-06-05T03:17:42.869Z,5.33
2017-06-05T03:20:17.107Z,5.63
2017-06-05T03:22:51.327Z,5.33
2017-06-05T03:25:25.520Z,5.23
2017-06-05T03:27:59.668Z,5.33
2017-06-05T03:30:33.733Z,6.00
2017-06-05T03:36:22.850Z,5.93
2017-06-05T03:38:57.411Z,6.77
2017-06-05T03:44:45.900Z,6.27
2017-06-05T03:47:20.121Z,7.03
2017-06-05T03:49:54.387Z,6.40
2017-06-05T03:52:28.598Z,6.60
2017-06-05T03:55:02.784Z,6.30
2017-06-05T03:57:36.956Z,6.40
2017-06-05T04:00:11.140Z,7.50
2017-06-05T04:02:45.390Z,6.90
2017-06-05T04:05:19.420Z,6.97
2017-06-05T04:07:53.552Z,6.80
2017-06-05T04:10:27.776Z,6.40
2017-06-05T04:13:01.973Z,6.57
2017-06-05T04:15:36.181Z,6.80
2017-06-05T04:24:40.566Z,6.57
2017-06-05T04:27:14.700Z,7.20
2017-06-05T04:29:48.980Z,6.17
2017-06-05T04:32:23.085Z,7.07
2017-06-05T04:34:57.356Z,6.10
2017-06-05T04:37:31.487Z,5.80
2017-06-05T04:40:05.625Z,6.37
2017-06-05T04:42:39.794Z,5.97
2017-06-05T04:45:13.932Z,5.73
2017-06-05T04:47:48.085Z,5.33
2017-06-05T04:53:37.191Z,4.87
2017-06-05T04:56:11.182Z,4.73
2017-06-05T04:58:45.441Z,4.93
2017-06-05T05:04:34.587Z,4.77
2017-06-05T05:07:08.836Z,4.80
2017-06-05T05:09:42.973Z,4.47
2017-06-05T05:12:17.131Z,4.90
2017-06-05T05:14:51.425Z,4.30
2017-06-05T05:17:25.641Z,4.43
2017-06-05T05:19:59.873Z,4.83
2017-06-05T05:22:34.004Z,4.60
2017-06-05T05:25:08.228Z,4.30
2017-06-05T05:27:42.519Z,4.80
2017-06-05T05:30:16.842Z,4.40
2017-06-05T05:39:21.888Z,4.07
2017-06-05T05:41:56.310Z,4.40
2017-06-05T05:44:30.624Z,4.50
2017-06-05T05:47:04.933Z,4.57
2017-06-05T05:49:39.099Z,4.70
2017-06-05T05:52:13.144Z,4.30
2017-06-05T05:54:47.485Z,3.80
2017-06-05T05:57:21.549Z,4.30
2017-06-05T05:59:55.747Z,3.57
2017-06-05T06:02:29.782Z,3.83
2017-06-05T06:05:04.088Z,3.80
2017-06-05T06:07:38.296Z,3.60
2017-06-05T06:10:12.400Z,3.40
2017-06-05T06:19:16.744Z,3.63
2017-06-05T06:21:50.940Z,3.60
2017-06-05T06:24:25.143Z,3.70
2017-06-05T06:26:59.280Z,3.30
2017-06-05T06:29:33.445Z,4.00
2017-06-05T06:32:07.709Z,4.00
2017-06-05T06:34:41.936Z,3.80
2017-06-05T06:37:16.102Z,4.40
2017-06-05T06:39:50.233Z,4.20
2017-06-05T06:42:24.241Z,4.73
2017-06-05T06:44:58.260Z,4.30
2017-06-05T06:47:32.418Z,3.60
2017-06-05T06:53:21.738Z,4.50
2017-06-05T06:55:55.724Z,4.40
2017-06-05T06:58:29.724Z,4.60
2017-06-05T07:04:18.384Z,4.23
2017-06-05T07:06:52.616Z,3.80
2017-06-05T07:09:26.679Z,4.30
2017-06-05T07:12:00.775Z,3.67
2017-06-05T07:14:34.977Z,3.30
2017-06-05T07:17:09.161Z,3.33
2017-06-05T07:19:43.214Z,4.13
2017-06-05T07:25:32.339Z,3.70
2017-06-05T07:28:06.393Z,3.80
2017-06-05T07:33:55.650Z,3.73
2017-06-05T07:36:29.829Z,3.50
2017-06-05T07:39:05.870Z,3.77
2017-06-05T07:41:40.000Z,4.13
2017-06-05T07:44:14.225Z,3.43
2017-06-05T07:46:48.369Z,3.57
2017-06-05T07:49:22.543Z,3.63
2017-06-05T07:51:56.674Z,3.20
2017-06-05T07:54:30.873Z,3.37
2017-06-05T07:57:04.884Z,3.20
2017-06-05T07:59:39.084Z,3.40
2017-06-05T08:02:13.281Z,3.37
2017-06-05T08:04:47.268Z,3.47
2017-06-05T08:13:51.193Z,3.20
2017-06-05T08:16:25.422Z,3.40
2017-06-05T08:18:59.938Z,3.57
2017-06-05T08:21:34.016Z,3.17
2017-06-05T08:24:08.061Z,3.10
2017-06-05T08:26:42.048Z,3.00
2017-06-05T08:29:16.298Z,3.23
2017-06-05T08:31:50.401Z,2.80
2017-06-05T08:34:24.609Z,3.33
2017-06-05T08:36:58.764Z,3.27
2017-06-05T08:42:48.303Z,3.03
2017-06-05T08:45:22.465Z,3.40
2017-06-05T08:47:56.546Z,3.53
2017-06-05T08:50:30.707Z,3.30
2017-06-05T08:53:04.916Z,3.67
2017-06-05T08:55:39.136Z,3.50
2017-06-05T08:58:13.353Z,3.10
2017-06-05T09:04:02.752Z,4.43
2017-06-05T09:06:36.929Z,3.40
2017-06-05T09:09:11.065Z,3.40
2017-06-05T09:11:45.114Z,3.53
2017-06-05T09:14:19.281Z,3.40
2017-06-05T09:16:53.460Z,3.43
2017-06-05T09:19:27.657Z,3.37
2017-06-05T09:22:07.780Z,3.40
2017-06-05T09:24:41.878Z,3.50
2017-06-05T09:27:16.093Z,3.77
2017-06-05T09:29:51.941Z,3.00
2017-06-05T09:32:26.100Z,3.57
2017-06-05T09:35:00.218Z,3.20
2017-06-05T09:37:34.224Z,3.37
2017-06-05T09:40:08.449Z,3.40
2017-06-05T09:42:42.505Z,3.40
2017-06-05T09:45:16.694Z,3.37
2017-06-05T09:47:50.700Z,3.47
2017-06-05T09:50:24.902Z,3.67
2017-06-05T09:52:59.046Z,3.50
2017-06-05T09:55:33.235Z,3.30
2017-06-05T09:58:07.465Z,3.40
2017-06-05T10:00:41.666Z,2.93
2017-06-05T10:03:15.674Z,3.20
2017-06-05T10:05:49.657Z,3.30
2017-06-05T10:08:23.723Z,3.20
2017-06-05T10:10:57.748Z,3.23
2017-06-05T10:13:31.893Z,3.50
2017-06-05T10:16:05.973Z,3.17
2017-06-05T10:18:39.974Z,3.83
2017-06-05T10:24:29.425Z,3.80
2017-06-05T10:27:03.681Z,3.50
2017-06-05T10:29:37.869Z,3.30
2017-06-05T10:32:11.980Z,3.50
2017-06-05T10:34:45.982Z,3.43
2017-06-05T10:37:20.092Z,3.90
2017-06-05T10:39:54.126Z,3.60
2017-06-05T10:45:43.440Z,3.23
2017-06-05T10:48:17.617Z,3.30
2017-06-05T10:54:06.803Z,3.70
2017-06-05T10:56:40.974Z,3.50
2017-06-05T10:59:15.100Z,4.30
2017-06-05T11:01:49.225Z,3.70
2017-06-05T11:04:23.393Z,3.40
2017-06-05T11:06:57.406Z,3.60
2017-06-05T11:09:31.537Z,3.60
2017-06-05T11:12:05.605Z,4.10
2017-06-05T11:14:39.652Z,4.10
2017-06-05T11:17:13.948Z,3.50
2017-06-05T11:19:48.231Z,3.47
2017-06-05T11:22:22.453Z,3.50
2017-06-05T11:24:56.514Z,3.70
2017-06-05T11:27:30.637Z,3.73
2017-06-05T11:30:04.733Z,3.60
2017-06-05T11:32:38.870Z,3.80
2017-06-05T11:35:12.982Z,3.50
2017-06-05T11:37:47.210Z,3.67
2017-06-05T11:40:21.364Z,3.73
2017-06-05T11:42:55.397Z,3.50
2017-06-05T11:45:29.609Z,3.50
2017-06-05T11:48:03.687Z,3.80
2017-06-05T11:50:37.907Z,3.80
2017-06-05T11:53:12.130Z,3.30
2017-06-05T11:55:46.137Z,3.60
2017-06-05T11:58:20.293Z,3.60
2017-06-05T12:00:54.846Z,4.10
2017-06-05T12:03:29.174Z,3.80
2017-06-05T12:06:03.477Z,3.60
2017-06-05T12:08:37.696Z,3.77
2017-06-05T12:11:11.844Z,3.90
2017-06-05T12:13:45.973Z,3.90
2017-06-05T12:16:20.117Z,3.80
2017-06-05T12:18:54.220Z,3.90
2017-06-05T12:24:42.915Z,3.53
2017-06-05T12:27:17.131Z,4.13
2017-06-05T12:29:51.136Z,4.10
2017-06-05T12:32:25.349Z,4.20
2017-06-05T12:34:59.456Z,4.30
2017-06-05T12:37:33.528Z,4.40
2017-06-05T12:40:07.685Z,3.87
2017-06-05T12:42:41.955Z,4.27
2017-06-05T12:48:30.592Z,4.03
2017-06-05T12:51:04.600Z,3.80
2017-06-05T12:53:38.663Z,3.60
2017-06-05T12:56:12.964Z,3.87
2017-06-05T12:58:47.016Z,3.77
2017-06-05T13:04:36.280Z,3.40
2017-06-05T13:07:10.292Z,3.53
2017-06-05T13:09:44.509Z,3.60
2017-06-05T13:12:18.483Z,3.53
2017-06-05T13:14:52.516Z,3.63
2017-06-05T13:17:26.688Z,3.93
2017-06-05T13:20:00.661Z,3.80
2017-06-05T13:22:34.704Z,3.70
2017-06-05T13:25:08.826Z,3.50
2017-06-05T13:27:43.009Z,4.00
2017-06-05T13:30:17.129Z,3.70
2017-06-05T13:32:51.228Z,3.70
2017-06-05T13:35:25.337Z,3.70
2017-06-05T13:37:59.493Z,3.63
2017-06-05T13:40:33.702Z,3.57
2017-06-05T13:43:07.704Z,3.80
2017-06-05T13:45:41.852Z,3.80
2017-06-05T13:48:16.013Z,3.50
2017-06-05T13:50:50.063Z,4.13
2017-06-05T13:53:24.116Z,4.03
2017-06-05T13:55:58.153Z,4.40
2017-06-05T13:58:32.269Z,4.00
2017-06-05T14:01:07.609Z,3.77
2017-06-05T14:03:41.845Z,3.90
2017-06-05T14:06:15.965Z,4.10
2017-06-05T14:08:50.118Z,3.83
2017-06-05T14:11:24.292Z,3.90
2017-06-05T14:13:58.494Z,3.60
2017-06-05T14:16:32.596Z,3.80
2017-06-05T14:19:06.669Z,3.60
2017-06-05T14:21:40.765Z,3.77
2017-06-05T14:24:14.964Z,3.50
2017-06-05T14:26:48.984Z,3.70
2017-06-05T14:29:23.221Z,42.23
2017-06-05T14:31:57.259Z,95.73
2017-06-05T14:34:31.407Z,90.23
2017-06-05T14:37:05.525Z,55.03
2017-06-05T14:39:39.745Z,5.57
2017-06-05T14:48:43.096Z,4.20
2017-06-05T14:51:17.661Z,3.67
2017-06-05T14:53:52.072Z,3.73
2017-06-05T14:56:27.012Z,3.60
2017-06-05T14:59:01.224Z,3.83
2017-06-05T15:01:35.371Z,4.30
2017-06-05T15:04:09.544Z,4.50
2017-06-05T15:06:43.796Z,11.80
2017-06-05T15:09:18.023Z,11.97
2017-06-05T15:11:52.084Z,8.60
2017-06-05T15:14:26.257Z,10.60
2017-06-05T15:17:00.357Z,4.90
2017-06-05T15:19:34.416Z,16.83
2017-06-05T15:22:08.576Z,36.67
2017-06-05T15:24:42.637Z,54.70
2017-06-05T15:27:16.799Z,44.30
2017-06-05T15:29:50.812Z,17.67
2017-06-05T15:32:24.993Z,35.27
2017-06-05T15:34:58.981Z,23.30
2017-06-05T15:37:33.200Z,19.00
2017-06-05T15:40:07.436Z,11.53
2017-06-05T15:42:41.675Z,12.40
2017-06-05T15:45:15.921Z,6.70
2017-06-05T15:47:49.979Z,9.70
2017-06-05T15:50:24.165Z,35.00
2017-06-05T15:52:58.378Z,8.73
2017-06-05T15:55:32.559Z,7.30
2017-06-05T15:58:06.686Z,8.40
2017-06-05T16:00:40.909Z,6.53
2017-06-05T16:03:15.067Z,3.60
2017-06-05T16:05:49.226Z,3.80
2017-06-05T16:08:23.256Z,13.77
2017-06-05T16:14:12.037Z,3.50
2017-06-05T16:16:46.132Z,4.20
2017-06-05T16:19:20.289Z,4.70
2017-06-05T16:21:54.518Z,3.90
2017-06-05T16:24:28.644Z,3.10
2017-06-05T16:27:02.860Z,3.57
2017-06-05T16:29:37.077Z,3.40
2017-06-05T16:32:11.227Z,4.10
2017-06-05T16:34:45.256Z,3.80
2017-06-05T16:37:19.349Z,4.50
2017-06-05T16:39:53.441Z,3.80
2017-06-05T16:45:42.716Z,6.87
2017-06-05T16:48:16.906Z,4.67
2017-06-05T16:54:05.776Z,4.13
2017-06-05T16:56:39.940Z,16.93
2017-06-05T16:59:14.149Z,7.23
2017-06-05T17:01:49.599Z,4.40
2017-06-05T17:04:23.805Z,5.80
2017-06-05T17:06:58.008Z,6.07
2017-06-05T17:09:32.175Z,6.20
2017-06-05T17:12:06.236Z,13.87
2017-06-05T17:14:41.689Z,14.70
2017-06-05T17:17:15.775Z,6.10
2017-06-05T17:19:49.876Z,4.60
2017-06-05T17:28:53.068Z,4.87
2017-06-05T17:31:27.422Z,35.60
2017-06-05T17:34:01.746Z,30.63
2017-06-05T17:36:35.977Z,12.03
2017-06-05T17:39:11.491Z,5.80
2017-06-05T17:41:45.768Z,5.10
2017-06-05T17:44:19.990Z,9.13
2017-06-05T17:46:54.240Z,5.13
2017-06-05T17:49:28.481Z,5.13
2017-06-05T17:52:02.851Z,9.47
2017-06-05T17:54:36.973Z,8.43
2017-06-05T17:57:11.596Z,6.03
2017-06-05T17:59:54.750Z,5.73
2017-06-05T18:02:28.905Z,4.60
2017-06-05T18:05:03.559Z,5.10
2017-06-05T18:14:07.173Z,9.10
2017-06-05T18:16:41.464Z,11.73
2017-06-05T18:19:15.756Z,7.70
2017-06-05T18:21:50.027Z,5.83
2017-06-05T18:24:24.939Z,6.10
2017-06-05T18:26:59.285Z,5.60
2017-06-05T18:29:33.457Z,4.77
2017-06-05T18:32:07.531Z,4.60
2017-06-05T18:34:41.651Z,5.40
2017-06-05T18:37:15.801Z,5.30
2017-06-05T18:39:49.971Z,5.10
2017-06-05T18:42:24.002Z,11.00
2017-06-05T18:51:28.777Z,5.03
2017-06-05T18:54:02.960Z,7.00
2017-06-05T18:56:37.113Z,10.97
2017-06-05T18:59:11.321Z,6.53
2017-06-05T19:01:45.413Z,5.43
2017-06-05T19:04:19.549Z,10.63
2017-06-05T19:06:53.847Z,10.13
2017-06-05T19:09:28.007Z,12.77
2017-06-05T19:12:02.064Z,6.63
2017-06-05T19:14:36.264Z,5.97
2017-06-05T19:20:25.326Z,5.90
2017-06-05T19:22:59.561Z,6.30
2017-06-05T19:25:33.675Z,6.13
2017-06-05T19:28:07.928Z,6.77
2017-06-05T19:30:42.170Z,5.83
2017-06-05T19:33:16.238Z,5.80
2017-06-05T19:35:50.373Z,6.20
2017-06-05T19:38:24.615Z,5.73
2017-06-05T19:44:13.985Z,5.73
2017-06-05T19:46:48.181Z,6.63
2017-06-05T19:49:22.240Z,5.97
2017-06-05T19:51:56.390Z,5.77
2017-06-05T19:57:45.121Z,6.20
2017-06-05T20:00:19.392Z,6.50
2017-06-05T20:02:53.749Z,8.27
2017-06-05T20:05:27.788Z,6.40
2017-06-05T20:08:01.876Z,6.70
2017-06-05T20:10:36.558Z,7.20
2017-06-05T20:13:10.708Z,6.50
2017-06-05T20:18:59.813Z,7.30
2017-06-05T20:21:33.964Z,6.80
2017-06-05T20:24:07.967Z,6.23
2017-06-05T20:26:42.100Z,6.40
2017-06-05T20:29:16.191Z,7.03
2017-06-05T20:31:51.593Z,6.47
2017-06-05T20:34:26.709Z,6.20
2017-06-05T20:37:27.185Z,6.43
2017-06-05T20:40:04.260Z,6.23
2017-06-05T20:42:40.808Z,6.83
2017-06-05T20:45:19.758Z,7.03
2017-06-05T20:47:58.843Z,6.23
2017-06-05T20:50:36.112Z,6.40
2017-06-05T20:53:29.206Z,8.57
2017-06-05T20:56:22.639Z,7.20
2017-06-05T20:59:00.842Z,6.68
2017-06-05T21:01:38.150Z,6.68
2017-06-05T21:04:13.536Z,6.82
2017-06-05T21:06:47.605Z,6.67
2017-06-05T21:09:21.699Z,6.60
2017-06-05T21:11:55.828Z,6.77
2017-06-05T21:14:30.044Z,7.30
2017-06-05T21:17:04.231Z,6.50
2017-06-05T21:46:53.511Z,7.37
2017-06-05T21:49:27.797Z,6.77
2017-06-05T21:52:01.865Z,6.90
2017-06-05T21:54:36.032Z,8.03
2017-06-05T21:57:11.246Z,7.50
2017-06-05T21:59:45.496Z,6.20
2017-06-05T22:02:19.668Z,6.37
2017-06-05T22:04:53.789Z,6.40
2017-06-05T22:07:27.885Z,6.50
2017-06-05T22:10:02.204Z,6.67
2017-06-05T22:12:36.391Z,7.23
2017-06-05T22:15:10.467Z,6.73
2017-06-05T22:17:44.876Z,7.70
2017-06-05T22:20:19.033Z,7.00
2017-06-05T22:22:53.257Z,6.40
2017-06-05T22:25:27.331Z,7.27
2017-06-05T22:28:01.419Z,6.50
2017-06-05T22:30:35.728Z,6.60
2017-06-05T22:33:11.846Z,6.17
2017-06-05T22:35:45.860Z,6.73
2017-06-05T22:38:20.019Z,6.87
2017-06-05T22:40:54.168Z,6.23
2017-06-05T22:43:28.352Z,6.40
2017-06-05T22:46:02.421Z,7.40
2017-06-05T22:48:36.703Z,6.50
2017-06-05T22:51:10.913Z,7.07
2017-06-05T22:53:45.164Z,7.30
2017-06-05T22:56:19.223Z,7.17
2017-06-05T22:58:53.402Z,7.40
2017-06-05T23:01:27.744Z,6.50
2017-06-05T23:04:01.827Z,7.03
2017-06-05T23:06:36.015Z,7.33
2017-06-05T23:09:10.064Z,7.47
2017-06-05T23:11:44.120Z,7.10
2017-06-05T23:14:18.397Z,7.97
2017-06-05T23:16:52.573Z,6.90
2017-06-05T23:19:26.808Z,6.80
2017-06-05T23:22:00.928Z,7.37
2017-06-05T23:24:35.313Z,7.00
2017-06-05T23:27:09.491Z,7.27
2017-06-05T23:29:43.707Z,7.10
2017-06-05T23:32:17.917Z,7.13
2017-06-05T23:34:52.045Z,7.10
2017-06-05T23:37:26.235Z,7.63
2017-06-05T23:40:00.413Z,7.40
2017-06-05T23:42:34.485Z,7.30
2017-06-05T23:45:08.531Z,7.50
2017-06-05T23:47:42.728Z,7.27
2017-06-05T23:50:16.953Z,6.67
2017-06-05T23:52:51.063Z,7.00
2017-06-05T23:55:25.143Z,7.00
2017-06-05T23:57:59.260Z,7.10
